sensor_id;sensor_type;location;lat;lon;timestamp;pressure;altitude;pressure_sealevel;temperature;humidity
51999;BME280;38015;50.924;11.598;2023-03-03T00:01:26;100016.61;;;22.28;22.99
51999;BME280;38015;50.924;11.598;2023-03-03T00:03:56;100016.18;;;22.25;23.03
51999;BME280;38015;50.924;11.598;2023-03-03T00:06:27;100015.85;;;22.21;23.09
51999;BME280;38015;50.924;11.598;2023-03-03T00:08:57;100014.44;;;22.21;23.11
51999;BME280;38015;50.924;11.598;2023-03-03T00:11:30;100015.84;;;22.19;23.11
51999;BME280;38015;50.924;11.598;2023-03-03T00:14:00;100014.93;;;22.17;23.15
51999;BME280;38015;50.924;11.598;2023-03-03T00:16:33;100014.25;;;22.20;23.12
51999;BME280;38015;50.924;11.598;2023-03-03T00:19:00;100015.28;;;22.22;23.07
51999;BME280;38015;50.924;11.598;2023-03-03T00:21:31;100011.97;;;22.21;23.03
51999;BME280;38015;50.924;11.598;2023-03-03T00:24:14;100009.83;;;22.23;22.98
51999;BME280;38015;50.924;11.598;2023-03-03T00:26:36;100010.54;;;22.23;23.04
51999;BME280;38015;50.924;11.598;2023-03-03T00:31:34;100011.31;;;22.22;23.05
51999;BME280;38015;50.924;11.598;2023-03-03T00:34:18;100016.06;;;22.25;23.01
51999;BME280;38015;50.924;11.598;2023-03-03T00:36:35;100021.40;;;22.29;22.92
51999;BME280;38015;50.924;11.598;2023-03-03T00:41:35;100018.65;;;22.27;23.00
51999;BME280;38015;50.924;11.598;2023-03-03T00:46:36;100022.68;;;22.27;22.95
51999;BME280;38015;50.924;11.598;2023-03-03T00:49:10;100023.92;;;22.29;22.91
51999;BME280;38015;50.924;11.598;2023-03-03T00:51:37;100023.60;;;22.25;23.00
51999;BME280;38015;50.924;11.598;2023-03-03T00:54:06;100022.03;;;22.19;23.10
51999;BME280;38015;50.924;11.598;2023-03-03T00:56:37;100022.03;;;22.20;23.04
51999;BME280;38015;50.924;11.598;2023-03-03T00:59:09;100023.39;;;22.14;23.11
51999;BME280;38015;50.924;11.598;2023-03-03T01:01:37;100022.60;;;22.19;23.05
51999;BME280;38015;50.924;11.598;2023-03-03T01:04:08;100019.11;;;22.23;22.99
51999;BME280;38015;50.924;11.598;2023-03-03T01:06:38;100015.44;;;22.12;23.18
51999;BME280;38015;50.924;11.598;2023-03-03T01:09:08;100013.59;;;22.16;23.10
51999;BME280;38015;50.924;11.598;2023-03-03T01:11:39;100009.85;;;22.12;23.18
51999;BME280;38015;50.924;11.598;2023-03-03T01:14:09;100007.67;;;22.14;23.17
51999;BME280;38015;50.924;11.598;2023-03-03T01:16:39;100009.46;;;22.12;23.20
51999;BME280;38015;50.924;11.598;2023-03-03T01:19:10;100012.24;;;22.06;23.24
51999;BME280;38015;50.924;11.598;2023-03-03T01:21:40;100010.07;;;22.12;23.18
51999;BME280;38015;50.924;11.598;2023-03-03T01:24:10;100010.86;;;22.07;23.26
51999;BME280;38015;50.924;11.598;2023-03-03T01:26:40;100014.22;;;22.15;23.12
51999;BME280;38015;50.924;11.598;2023-03-03T01:29:11;100012.80;;;22.10;23.17
51999;BME280;38015;50.924;11.598;2023-03-03T01:31:41;100015.43;;;22.14;23.15
51999;BME280;38015;50.924;11.598;2023-03-03T01:34:12;100019.85;;;22.18;23.08
51999;BME280;38015;50.924;11.598;2023-03-03T01:36:42;100021.36;;;22.19;23.03
51999;BME280;38015;50.924;11.598;2023-03-03T01:39:12;100021.14;;;22.13;23.17
51999;BME280;38015;50.924;11.598;2023-03-03T01:41:43;100025.37;;;22.21;23.03
51999;BME280;38015;50.924;11.598;2023-03-03T01:44:14;100023.38;;;22.17;23.09
51999;BME280;38015;50.924;11.598;2023-03-03T01:46:48;100025.60;;;22.19;23.03
51999;BME280;38015;50.924;11.598;2023-03-03T01:49:16;100032.26;;;22.22;23.03
51999;BME280;38015;50.924;11.598;2023-03-03T01:51:48;100026.79;;;22.17;23.04
51999;BME280;38015;50.924;11.598;2023-03-03T01:54:20;100028.44;;;22.18;23.02
51999;BME280;38015;50.924;11.598;2023-03-03T01:56:45;100025.92;;;22.14;23.13
51999;BME280;38015;50.924;11.598;2023-03-03T01:59:19;100026.98;;;22.20;23.00
51999;BME280;38015;50.924;11.598;2023-03-03T02:01:47;100029.43;;;22.18;23.04
51999;BME280;38015;50.924;11.598;2023-03-03T02:04:17;100026.09;;;22.17;23.07
51999;BME280;38015;50.924;11.598;2023-03-03T02:06:49;100024.37;;;22.14;23.05
51999;BME280;38015;50.924;11.598;2023-03-03T02:09:21;100021.18;;;22.12;23.14
51999;BME280;38015;50.924;11.598;2023-03-03T02:11:50;100020.07;;;22.13;23.08
51999;BME280;38015;50.924;11.598;2023-03-03T02:14:18;100016.19;;;22.12;23.12
51999;BME280;38015;50.924;11.598;2023-03-03T02:16:48;100019.02;;;22.13;23.09
51999;BME280;38015;50.924;11.598;2023-03-03T02:19:25;100014.70;;;22.08;23.21
51999;BME280;38015;50.924;11.598;2023-03-03T02:21:49;100011.10;;;22.04;23.25
51999;BME280;38015;50.924;11.598;2023-03-03T02:24:24;100009.25;;;22.09;23.15
51999;BME280;38015;50.924;11.598;2023-03-03T02:26:49;100013.60;;;22.06;23.21
51999;BME280;38015;50.924;11.598;2023-03-03T02:29:20;100011.43;;;22.14;23.07
51999;BME280;38015;50.924;11.598;2023-03-03T02:31:50;100006.38;;;22.14;23.11
51999;BME280;38015;50.924;11.598;2023-03-03T02:34:20;100006.90;;;22.18;23.04
51999;BME280;38015;50.924;11.598;2023-03-03T02:36:51;100004.16;;;22.11;23.10
51999;BME280;38015;50.924;11.598;2023-03-03T02:39:23;100001.71;;;22.12;23.13
51999;BME280;38015;50.924;11.598;2023-03-03T02:41:54;100002.37;;;22.10;23.10
51999;BME280;38015;50.924;11.598;2023-03-03T02:44:24;100003.33;;;22.15;23.05
51999;BME280;38015;50.924;11.598;2023-03-03T02:46:54;99997.24;;;22.13;23.01
51999;BME280;38015;50.924;11.598;2023-03-03T02:49:24;99997.17;;;22.10;23.09
51999;BME280;38015;50.924;11.598;2023-03-03T02:51:54;99998.47;;;22.16;22.99
51999;BME280;38015;50.924;11.598;2023-03-03T02:54:26;100004.42;;;22.12;23.07
51999;BME280;38015;50.924;11.598;2023-03-03T02:56:54;100008.37;;;22.15;23.00
51999;BME280;38015;50.924;11.598;2023-03-03T02:59:25;100012.53;;;22.15;23.00
51999;BME280;38015;50.924;11.598;2023-03-03T03:01:56;100024.30;;;22.16;22.96
51999;BME280;38015;50.924;11.598;2023-03-03T03:04:27;100023.18;;;22.11;23.11
51999;BME280;38015;50.924;11.598;2023-03-03T03:06:57;100021.82;;;22.10;23.10
51999;BME280;38015;50.924;11.598;2023-03-03T03:09:27;100023.87;;;22.07;23.14
51999;BME280;38015;50.924;11.598;2023-03-03T03:11:58;100024.30;;;22.04;23.20
51999;BME280;38015;50.924;11.598;2023-03-03T03:14:28;100020.49;;;22.10;23.11
51999;BME280;38015;50.924;11.598;2023-03-03T03:16:58;100020.86;;;22.07;23.17
51999;BME280;38015;50.924;11.598;2023-03-03T03:19:28;100020.33;;;22.02;23.24
51999;BME280;38015;50.924;11.598;2023-03-03T03:21:59;100024.84;;;21.96;23.31
51999;BME280;38015;50.924;11.598;2023-03-03T03:24:29;100028.81;;;21.95;23.32
51999;BME280;38015;50.924;11.598;2023-03-03T03:27:00;100029.48;;;22.00;23.26
51999;BME280;38015;50.924;11.598;2023-03-03T03:29:31;100034.42;;;22.06;23.12
51999;BME280;38015;50.924;11.598;2023-03-03T03:32:01;100037.80;;;22.06;23.11
51999;BME280;38015;50.924;11.598;2023-03-03T03:34:31;100040.90;;;22.07;23.10
51999;BME280;38015;50.924;11.598;2023-03-03T03:37:01;100036.34;;;22.10;23.10
51999;BME280;38015;50.924;11.598;2023-03-03T03:39:33;100033.94;;;22.04;23.14
51999;BME280;38015;50.924;11.598;2023-03-03T03:42:03;100029.73;;;22.09;23.10
51999;BME280;38015;50.924;11.598;2023-03-03T03:44:34;100030.98;;;22.09;23.09
51999;BME280;38015;50.924;11.598;2023-03-03T03:47:04;100030.46;;;22.02;23.19
51999;BME280;38015;50.924;11.598;2023-03-03T03:49:34;100031.13;;;22.13;22.99
51999;BME280;38015;50.924;11.598;2023-03-03T03:52:05;100023.43;;;22.12;23.06
51999;BME280;38015;50.924;11.598;2023-03-03T03:54:35;100013.63;;;22.08;23.08
51999;BME280;38015;50.924;11.598;2023-03-03T03:57:06;100012.13;;;22.09;23.02
51999;BME280;38015;50.924;11.598;2023-03-03T03:59:36;100007.69;;;22.13;22.93
51999;BME280;38015;50.924;11.598;2023-03-03T04:02:07;100009.56;;;22.12;22.99
51999;BME280;38015;50.924;11.598;2023-03-03T04:04:37;100008.02;;;22.09;23.07
51999;BME280;38015;50.924;11.598;2023-03-03T04:07:08;100009.69;;;22.07;23.08
51999;BME280;38015;50.924;11.598;2023-03-03T04:09:38;100017.51;;;22.09;23.04
51999;BME280;38015;50.924;11.598;2023-03-03T04:12:09;100020.09;;;22.02;23.18
51999;BME280;38015;50.924;11.598;2023-03-03T04:14:38;100018.61;;;21.99;23.20
51999;BME280;38015;50.924;11.598;2023-03-03T04:17:12;100025.30;;;22.01;23.19
51999;BME280;38015;50.924;11.598;2023-03-03T04:19:40;100024.15;;;22.06;23.11
51999;BME280;38015;50.924;11.598;2023-03-03T04:22:11;100030.49;;;22.02;23.15
51999;BME280;38015;50.924;11.598;2023-03-03T04:24:41;100034.25;;;21.95;23.23
51999;BME280;38015;50.924;11.598;2023-03-03T04:27:11;100035.03;;;21.97;23.25
51999;BME280;38015;50.924;11.598;2023-03-03T04:29:42;100037.68;;;21.98;23.24
51999;BME280;38015;50.924;11.598;2023-03-03T04:32:12;100035.00;;;22.04;23.13
51999;BME280;38015;50.924;11.598;2023-03-03T04:34:43;100038.33;;;22.02;23.16
51999;BME280;38015;50.924;11.598;2023-03-03T04:37:13;100035.83;;;22.07;23.08
51999;BME280;38015;50.924;11.598;2023-03-03T04:39:43;100035.98;;;22.05;23.07
51999;BME280;38015;50.924;11.598;2023-03-03T04:42:14;100043.59;;;22.03;23.14
51999;BME280;38015;50.924;11.598;2023-03-03T04:44:45;100044.81;;;22.15;22.92
51999;BME280;38015;50.924;11.598;2023-03-03T04:47:16;100050.11;;;22.09;23.06
51999;BME280;38015;50.924;11.598;2023-03-03T04:49:46;100044.99;;;22.11;22.98
51999;BME280;38015;50.924;11.598;2023-03-03T04:52:16;100047.43;;;22.12;22.99
51999;BME280;38015;50.924;11.598;2023-03-03T04:54:46;100047.91;;;22.05;23.04
51999;BME280;38015;50.924;11.598;2023-03-03T04:57:16;100049.12;;;21.94;23.21
51999;BME280;38015;50.924;11.598;2023-03-03T04:59:47;100049.87;;;22.05;23.10
51999;BME280;38015;50.924;11.598;2023-03-03T05:02:18;100051.52;;;22.10;23.02
51999;BME280;38015;50.924;11.598;2023-03-03T05:04:50;100046.86;;;22.03;23.09
51999;BME280;38015;50.924;11.598;2023-03-03T05:07:18;100053.19;;;22.02;23.11
51999;BME280;38015;50.924;11.598;2023-03-03T05:09:48;100056.11;;;22.05;23.04
51999;BME280;38015;50.924;11.598;2023-03-03T05:12:19;100056.97;;;22.00;23.16
51999;BME280;38015;50.924;11.598;2023-03-03T05:14:49;100060.50;;;21.98;23.10
51999;BME280;38015;50.924;11.598;2023-03-03T05:17:20;100054.23;;;21.97;23.16
51999;BME280;38015;50.924;11.598;2023-03-03T05:19:50;100062.26;;;22.00;23.03
51999;BME280;38015;50.924;11.598;2023-03-03T05:22:22;100067.44;;;21.96;23.16
51999;BME280;38015;50.924;11.598;2023-03-03T05:24:51;100072.12;;;21.85;23.29
51999;BME280;38015;50.924;11.598;2023-03-03T05:27:21;100074.82;;;21.94;23.16
51999;BME280;38015;50.924;11.598;2023-03-03T05:29:52;100082.17;;;22.08;22.88
51999;BME280;38015;50.924;11.598;2023-03-03T05:32:22;100080.71;;;21.98;23.10
51999;BME280;38015;50.924;11.598;2023-03-03T05:34:52;100085.45;;;22.09;22.95
51999;BME280;38015;50.924;11.598;2023-03-03T05:37:23;100081.70;;;22.04;23.04
51999;BME280;38015;50.924;11.598;2023-03-03T05:39:53;100079.66;;;22.03;23.09
51999;BME280;38015;50.924;11.598;2023-03-03T05:42:24;100081.24;;;21.95;23.17
51999;BME280;38015;50.924;11.598;2023-03-03T05:44:54;100091.73;;;22.06;23.03
51999;BME280;38015;50.924;11.598;2023-03-03T05:47:24;100089.09;;;22.06;23.06
51999;BME280;38015;50.924;11.598;2023-03-03T05:49:57;100091.77;;;22.07;23.03
51999;BME280;38015;50.924;11.598;2023-03-03T05:52:26;100095.15;;;22.06;23.06
51999;BME280;38015;50.924;11.598;2023-03-03T05:54:58;100091.81;;;22.04;23.07
51999;BME280;38015;50.924;11.598;2023-03-03T05:57:27;100096.70;;;22.01;23.10
51999;BME280;38015;50.924;11.598;2023-03-03T05:59:58;100101.81;;;22.09;23.00
51999;BME280;38015;50.924;11.598;2023-03-03T06:02:28;100093.85;;;21.96;23.17
51999;BME280;38015;50.924;11.598;2023-03-03T06:04:59;100094.19;;;21.93;23.21
51999;BME280;38015;50.924;11.598;2023-03-03T06:07:29;100100.58;;;21.95;23.16
51999;BME280;38015;50.924;11.598;2023-03-03T06:10:01;100109.19;;;21.94;23.22
51999;BME280;38015;50.924;11.598;2023-03-03T06:12:30;100115.31;;;21.97;23.17
51999;BME280;38015;50.924;11.598;2023-03-03T06:15:00;100113.24;;;21.92;23.19
51999;BME280;38015;50.924;11.598;2023-03-03T06:17:30;100115.54;;;21.85;23.32
51999;BME280;38015;50.924;11.598;2023-03-03T06:20:01;100116.74;;;21.83;23.34
51999;BME280;38015;50.924;11.598;2023-03-03T06:22:31;100115.65;;;21.89;23.24
51999;BME280;38015;50.924;11.598;2023-03-03T06:25:02;100110.08;;;21.99;23.03
51999;BME280;38015;50.924;11.598;2023-03-03T06:27:32;100111.27;;;21.97;23.09
51999;BME280;38015;50.924;11.598;2023-03-03T06:30:04;100110.86;;;22.00;23.05
51999;BME280;38015;50.924;11.598;2023-03-03T06:32:33;100111.34;;;22.00;23.03
51999;BME280;38015;50.924;11.598;2023-03-03T06:35:04;100111.86;;;22.05;22.93
51999;BME280;38015;50.924;11.598;2023-03-03T06:37:34;100116.37;;;22.04;22.98
51999;BME280;38015;50.924;11.598;2023-03-03T06:40:05;100118.13;;;21.59;23.61
51999;BME280;38015;50.924;11.598;2023-03-03T06:42:35;100124.13;;;21.66;23.55
51999;BME280;38015;50.924;11.598;2023-03-03T06:45:06;100128.41;;;21.92;23.18
51999;BME280;38015;50.924;11.598;2023-03-03T06:47:35;100131.61;;;21.90;23.20
51999;BME280;38015;50.924;11.598;2023-03-03T06:50:07;100133.55;;;21.77;23.36
51999;BME280;38015;50.924;11.598;2023-03-03T06:52:36;100128.69;;;21.96;23.03
51999;BME280;38015;50.924;11.598;2023-03-03T06:55:12;100125.19;;;21.94;23.07
51999;BME280;38015;50.924;11.598;2023-03-03T06:57:37;100124.29;;;21.98;23.04
51999;BME280;38015;50.924;11.598;2023-03-03T07:00:14;100127.97;;;21.95;23.16
51999;BME280;38015;50.924;11.598;2023-03-03T07:02:39;100128.99;;;21.42;23.76
51999;BME280;38015;50.924;11.598;2023-03-03T07:05:13;100127.54;;;21.08;23.80
51999;BME280;38015;50.924;11.598;2023-03-03T07:07:39;100134.33;;;20.98;23.55
51999;BME280;38015;50.924;11.598;2023-03-03T07:10:20;100135.01;;;20.91;23.43
51999;BME280;38015;50.924;11.598;2023-03-03T07:12:40;100138.95;;;20.98;23.01
51999;BME280;38015;50.924;11.598;2023-03-03T07:15:16;100135.73;;;21.01;23.08
51999;BME280;38015;50.924;11.598;2023-03-03T07:17:44;100136.17;;;21.01;22.90
51999;BME280;38015;50.924;11.598;2023-03-03T07:20:18;100136.13;;;20.96;22.84
51999;BME280;38015;50.924;11.598;2023-03-03T07:22:42;100135.25;;;21.36;22.27
51999;BME280;38015;50.924;11.598;2023-03-03T07:25:20;100139.10;;;21.79;21.84
51999;BME280;38015;50.924;11.598;2023-03-03T07:27:43;100147.76;;;21.76;22.92
51999;BME280;38015;50.924;11.598;2023-03-03T07:30:22;100149.23;;;21.95;23.20
51999;BME280;38015;50.924;11.598;2023-03-03T07:32:45;100153.85;;;22.13;23.06
51999;BME280;38015;50.924;11.598;2023-03-03T07:37:47;100173.84;;;21.74;24.13
51999;BME280;38015;50.924;11.598;2023-03-03T07:40:27;100176.75;;;22.09;23.79
51999;BME280;38015;50.924;11.598;2023-03-03T07:42:46;100176.65;;;22.22;23.75
51999;BME280;38015;50.924;11.598;2023-03-03T07:45:27;100173.50;;;22.16;23.85
51999;BME280;38015;50.924;11.598;2023-03-03T07:47:47;100175.90;;;22.35;23.55
51999;BME280;38015;50.924;11.598;2023-03-03T07:50:19;100179.65;;;22.30;23.71
51999;BME280;38015;50.924;11.598;2023-03-03T07:52:55;100185.06;;;22.43;23.52
51999;BME280;38015;50.924;11.598;2023-03-03T07:55:26;100191.80;;;22.44;23.49
51999;BME280;38015;50.924;11.598;2023-03-03T07:57:51;100196.05;;;22.45;23.54
51999;BME280;38015;50.924;11.598;2023-03-03T08:02:52;100192.92;;;22.43;23.60
51999;BME280;38015;50.924;11.598;2023-03-03T08:05:27;100186.15;;;22.37;23.66
51999;BME280;38015;50.924;11.598;2023-03-03T08:07:53;100188.42;;;22.43;23.56
51999;BME280;38015;50.924;11.598;2023-03-03T08:10:35;100198.20;;;22.41;23.70
51999;BME280;38015;50.924;11.598;2023-03-03T08:12:52;100196.63;;;22.43;23.58
51999;BME280;38015;50.924;11.598;2023-03-03T08:15:24;100195.46;;;22.40;23.50
51999;BME280;38015;50.924;11.598;2023-03-03T08:17:54;100192.39;;;22.34;23.65
51999;BME280;38015;50.924;11.598;2023-03-03T08:22:54;100188.01;;;22.31;23.60
51999;BME280;38015;50.924;11.598;2023-03-03T08:25:24;100183.29;;;22.31;23.64
51999;BME280;38015;50.924;11.598;2023-03-03T08:27:55;100179.95;;;22.27;23.73
51999;BME280;38015;50.924;11.598;2023-03-03T08:30:25;100182.01;;;22.23;23.73
51999;BME280;38015;50.924;11.598;2023-03-03T08:32:56;100179.10;;;22.28;23.57
51999;BME280;38015;50.924;11.598;2023-03-03T08:35:27;100182.92;;;22.25;23.69
51999;BME280;38015;50.924;11.598;2023-03-03T08:37:57;100183.77;;;22.21;23.72
51999;BME280;38015;50.924;11.598;2023-03-03T08:40:27;100187.38;;;22.31;23.50
51999;BME280;38015;50.924;11.598;2023-03-03T08:42:58;100194.77;;;22.36;23.51
51999;BME280;38015;50.924;11.598;2023-03-03T08:45:30;100207.58;;;22.44;23.29
51999;BME280;38015;50.924;11.598;2023-03-03T08:47:58;100213.76;;;22.42;23.39
51999;BME280;38015;50.924;11.598;2023-03-03T08:50:29;100214.85;;;22.34;23.55
51999;BME280;38015;50.924;11.598;2023-03-03T08:53:01;100214.21;;;22.50;23.30
51999;BME280;38015;50.924;11.598;2023-03-03T08:55:30;100213.66;;;22.42;23.40
51999;BME280;38015;50.924;11.598;2023-03-03T08:58:01;100214.30;;;22.28;23.64
51999;BME280;38015;50.924;11.598;2023-03-03T09:00:31;100214.65;;;22.25;23.61
51999;BME280;38015;50.924;11.598;2023-03-03T09:03:01;100209.35;;;22.12;23.22
51999;BME280;38015;50.924;11.598;2023-03-03T09:05:34;100209.48;;;22.06;23.47
51999;BME280;38015;50.924;11.598;2023-03-03T09:08:03;100213.62;;;22.23;23.27
51999;BME280;38015;50.924;11.598;2023-03-03T09:10:34;100215.68;;;22.35;23.12
51999;BME280;38015;50.924;11.598;2023-03-03T09:13:11;100217.76;;;22.42;23.12
51999;BME280;38015;50.924;11.598;2023-03-03T09:15:37;100218.23;;;22.54;23.00
51999;BME280;38015;50.924;11.598;2023-03-03T09:18:14;100222.44;;;22.53;23.13
51999;BME280;38015;50.924;11.598;2023-03-03T09:20:36;100225.36;;;22.53;23.09
51999;BME280;38015;50.924;11.598;2023-03-03T09:25:37;100229.65;;;22.55;23.33
51999;BME280;38015;50.924;11.598;2023-03-03T09:28:18;100228.88;;;22.56;23.39
51999;BME280;38015;50.924;11.598;2023-03-03T09:30:38;100227.67;;;22.55;23.46
51999;BME280;38015;50.924;11.598;2023-03-03T09:33:16;100228.79;;;22.21;24.07
51999;BME280;38015;50.924;11.598;2023-03-03T09:35:38;100221.23;;;21.81;25.04
51999;BME280;38015;50.924;11.598;2023-03-03T09:38:20;100219.28;;;21.74;25.18
51999;BME280;38015;50.924;11.598;2023-03-03T09:40:50;100218.51;;;21.72;25.17
51999;BME280;38015;50.924;11.598;2023-03-03T09:43:12;100220.00;;;21.44;25.67
51999;BME280;38015;50.924;11.598;2023-03-03T09:45:51;100216.77;;;21.86;25.04
51999;BME280;38015;50.924;11.598;2023-03-03T09:50:48;100224.84;;;22.12;24.72
51999;BME280;38015;50.924;11.598;2023-03-03T09:53:24;100223.86;;;22.29;24.44
51999;BME280;38015;50.924;11.598;2023-03-03T09:55:49;100224.55;;;22.51;24.20
51999;BME280;38015;50.924;11.598;2023-03-03T09:58:28;100224.82;;;22.42;24.40
51999;BME280;38015;50.924;11.598;2023-03-03T10:00:53;100233.01;;;22.45;24.38
51999;BME280;38015;50.924;11.598;2023-03-03T10:05:49;100238.75;;;22.55;24.26
51999;BME280;38015;50.924;11.598;2023-03-03T10:08:29;100234.41;;;22.40;24.47
51999;BME280;38015;50.924;11.598;2023-03-03T10:10:50;100227.93;;;22.72;23.97
51999;BME280;38015;50.924;11.598;2023-03-03T10:13:25;100228.38;;;22.50;24.37
51999;BME280;38015;50.924;11.598;2023-03-03T10:16:06;100228.24;;;22.64;24.20
51999;BME280;38015;50.924;11.598;2023-03-03T10:20:55;100230.31;;;22.84;24.18
51999;BME280;38015;50.924;11.598;2023-03-03T10:23:20;100232.19;;;22.70;24.56
51999;BME280;38015;50.924;11.598;2023-03-03T10:25:55;100231.01;;;22.79;24.56
51999;BME280;38015;50.924;11.598;2023-03-03T10:28:35;100236.06;;;22.86;24.74
51999;BME280;38015;50.924;11.598;2023-03-03T10:30:54;100239.81;;;22.97;24.92
51999;BME280;38015;50.924;11.598;2023-03-03T10:33:25;100236.64;;;22.81;25.32
51999;BME280;38015;50.924;11.598;2023-03-03T10:36:02;100237.37;;;22.79;25.78
51999;BME280;38015;50.924;11.598;2023-03-03T10:38:35;100233.34;;;22.87;25.99
51999;BME280;38015;50.924;11.598;2023-03-03T10:40:53;100232.27;;;22.86;26.12
51999;BME280;38015;50.924;11.598;2023-03-03T10:46:03;100225.94;;;22.78;26.67
51999;BME280;38015;50.924;11.598;2023-03-03T10:48:32;100230.05;;;22.88;26.66
51999;BME280;38015;50.924;11.598;2023-03-03T10:50:57;100225.91;;;22.91;26.80
51999;BME280;38015;50.924;11.598;2023-03-03T10:53:28;100223.95;;;23.03;25.59
51999;BME280;38015;50.924;11.598;2023-03-03T10:58:33;100239.03;;;23.09;25.18
51999;BME280;38015;50.924;11.598;2023-03-03T11:01:00;100238.57;;;22.77;25.56
51999;BME280;38015;50.924;11.598;2023-03-03T11:05:58;100240.68;;;22.82;25.08
51999;BME280;38015;50.924;11.598;2023-03-03T11:08:28;100243.26;;;22.89;25.02
51999;BME280;38015;50.924;11.598;2023-03-03T11:11:06;100239.92;;;22.84;25.11
51999;BME280;38015;50.924;11.598;2023-03-03T11:13:35;100237.76;;;22.91;25.01
51999;BME280;38015;50.924;11.598;2023-03-03T11:16:05;100236.10;;;22.84;24.94
51999;BME280;38015;50.924;11.598;2023-03-03T11:18:34;100236.89;;;22.76;25.17
51999;BME280;38015;50.924;11.598;2023-03-03T11:21:06;100237.44;;;22.89;24.70
51999;BME280;38015;50.924;11.598;2023-03-03T11:26:07;100228.24;;;22.81;24.84
51999;BME280;38015;50.924;11.598;2023-03-03T11:31:09;100230.86;;;22.96;24.60
51999;BME280;38015;50.924;11.598;2023-03-03T11:33:33;100229.57;;;22.89;24.65
51999;BME280;38015;50.924;11.598;2023-03-03T11:36:08;100228.41;;;22.96;24.47
51999;BME280;38015;50.924;11.598;2023-03-03T11:38:44;100225.42;;;22.97;24.46
51999;BME280;38015;50.924;11.598;2023-03-03T11:41:05;100224.29;;;23.00;24.40
51999;BME280;38015;50.924;11.598;2023-03-03T11:43:37;100222.15;;;22.78;24.65
51999;BME280;38015;50.924;11.598;2023-03-03T11:46:04;100220.65;;;22.95;24.29
51999;BME280;38015;50.924;11.598;2023-03-03T11:48:38;100216.82;;;23.07;24.07
51999;BME280;38015;50.924;11.598;2023-03-03T11:51:06;100216.53;;;23.03;24.12
51999;BME280;38015;50.924;11.598;2023-03-03T11:53:39;100211.05;;;23.12;23.96
51999;BME280;38015;50.924;11.598;2023-03-03T11:56:20;100213.18;;;23.06;23.98
51999;BME280;38015;50.924;11.598;2023-03-03T11:58:41;100208.78;;;22.96;24.19
51999;BME280;38015;50.924;11.598;2023-03-03T12:01:13;100200.96;;;23.09;23.86
51999;BME280;38015;50.924;11.598;2023-03-03T12:03:38;100199.44;;;23.02;23.95
51999;BME280;38015;50.924;11.598;2023-03-03T12:06:18;100194.60;;;23.06;23.96
51999;BME280;38015;50.924;11.598;2023-03-03T12:08:47;100193.70;;;23.00;24.05
51999;BME280;38015;50.924;11.598;2023-03-03T12:11:10;100192.51;;;23.08;23.56
51999;BME280;38015;50.924;11.598;2023-03-03T12:13:49;100195.40;;;22.99;23.64
51999;BME280;38015;50.924;11.598;2023-03-03T12:16:14;100198.00;;;22.99;23.87
51999;BME280;38015;50.924;11.598;2023-03-03T12:18:48;100193.70;;;23.10;23.70
51999;BME280;38015;50.924;11.598;2023-03-03T12:21:19;100193.10;;;23.10;23.88
51999;BME280;38015;50.924;11.598;2023-03-03T12:23:51;100189.58;;;23.01;24.14
51999;BME280;38015;50.924;11.598;2023-03-03T12:26:13;100184.99;;;23.12;24.04
51999;BME280;38015;50.924;11.598;2023-03-03T12:28:47;100183.69;;;23.20;24.14
51999;BME280;38015;50.924;11.598;2023-03-03T12:31:24;100177.63;;;23.12;24.27
51999;BME280;38015;50.924;11.598;2023-03-03T12:33:51;100182.96;;;23.20;24.33
51999;BME280;38015;50.924;11.598;2023-03-03T12:36:24;100185.95;;;23.21;24.28
51999;BME280;38015;50.924;11.598;2023-03-03T12:38:49;100185.18;;;23.05;24.52
51999;BME280;38015;50.924;11.598;2023-03-03T12:41:18;100184.74;;;23.22;24.40
51999;BME280;38015;50.924;11.598;2023-03-03T12:43:54;100185.23;;;23.25;24.34
51999;BME280;38015;50.924;11.598;2023-03-03T12:46:19;100185.82;;;23.22;24.41
51999;BME280;38015;50.924;11.598;2023-03-03T12:48:45;100184.64;;;23.21;24.60
51999;BME280;38015;50.924;11.598;2023-03-03T12:51:24;100179.98;;;23.26;24.69
51999;BME280;38015;50.924;11.598;2023-03-03T12:56:28;100176.46;;;23.08;25.13
51999;BME280;38015;50.924;11.598;2023-03-03T12:58:51;100178.14;;;23.13;25.23
51999;BME280;38015;50.924;11.598;2023-03-03T13:01:33;100175.45;;;23.11;25.38
51999;BME280;38015;50.924;11.598;2023-03-03T13:03:54;100173.48;;;23.11;25.55
51999;BME280;38015;50.924;11.598;2023-03-03T13:06:24;100172.27;;;23.07;25.55
51999;BME280;38015;50.924;11.598;2023-03-03T13:09:00;100169.03;;;23.07;25.72
51999;BME280;38015;50.924;11.598;2023-03-03T13:11:32;100169.27;;;23.19;25.39
51999;BME280;38015;50.924;11.598;2023-03-03T13:13:56;100167.14;;;23.21;25.63
51999;BME280;38015;50.924;11.598;2023-03-03T13:16:24;100164.97;;;23.12;25.73
51999;BME280;38015;50.924;11.598;2023-03-03T13:18:56;100165.90;;;23.27;25.77
51999;BME280;38015;50.924;11.598;2023-03-03T13:21:24;100170.23;;;23.24;25.91
51999;BME280;38015;50.924;11.598;2023-03-03T13:23:55;100172.85;;;23.18;26.13
51999;BME280;38015;50.924;11.598;2023-03-03T13:26:26;100170.14;;;23.24;26.22
51999;BME280;38015;50.924;11.598;2023-03-03T13:29:01;100170.46;;;23.33;26.27
51999;BME280;38015;50.924;11.598;2023-03-03T13:31:25;100170.70;;;23.35;26.35
51999;BME280;38015;50.924;11.598;2023-03-03T13:33:54;100167.14;;;23.32;26.43
51999;BME280;38015;50.924;11.598;2023-03-03T13:36:25;100165.28;;;23.21;26.74